Time;durP1;ratioP1;P1;durP2;ratioP2;P2;SDS_P1;SDS_P2;PMS_P1;PMS_P2;Temp;Humidity;BMP_temperature;BMP_pressure;BME280_temperature;BME280_humidity;BME280_pressure;Samples;Min_cycle;Max_cycle;Signal;HPM_P1;HPM_P2
2023/10/09 00:02:09;;;;;;;14.95;4.32;;;;;;;20.07;56.12;95519.22;5045293;28;20211;-64
2023/10/09 00:04:36;;;;;;;3.42;2.33;;;;;;;20.08;56.08;95518.31;5049237;28;20214;-66
2023/10/09 00:07:07;;;;;;;5.45;3.15;;;;;;;20.07;55.90;95514.06;5052060;28;20294;-65
2023/10/09 00:09:46;;;;;;;7.65;2.45;;;;;;;20.05;56.04;95516.75;5047359;28;20226;-65
2023/10/09 00:12:15;;;;;;;6.07;2.70;;;;;;;19.96;56.32;95512.19;5053488;28;20198;-65
2023/10/09 00:14:48;;;;;;;15.23;10.18;;;;;;;20.12;55.68;95518.00;5051692;28;20207;-64
2023/10/09 00:17:18;;;;;;;10.18;7.68;;;;;;;20.08;55.79;95513.97;5046545;28;20195;-66
2023/10/09 00:19:47;;;;;;;8.98;5.05;;;;;;;20.05;55.73;95507.25;5045812;28;20201;-65
2023/10/09 00:22:25;;;;;;;9.13;3.95;;;;;;;19.99;55.94;95515.41;5046691;28;20203;-64
2023/10/09 00:25:10;;;;;;;5.85;2.95;;;;;;;19.81;55.92;95493.31;5047483;28;20211;-65
2023/10/09 00:27:41;;;;;;;6.03;2.63;;;;;;;19.90;56.12;95513.38;5044940;28;20207;-65
2023/10/09 00:30:15;;;;;;;7.28;2.38;;;;;;;19.86;56.07;95508.50;5047660;28;20758;-65
2023/10/09 00:32:46;;;;;;;4.35;1.88;;;;;;;19.80;56.38;95506.31;5045396;28;20252;-65
2023/10/09 00:38:01;;;;;;;4.38;2.67;;;;;;;19.66;56.65;95508.00;5047271;28;20299;-65
2023/10/09 00:40:34;;;;;;;71.28;41.33;;;;;;;19.66;56.46;95505.44;5056045;28;20198;-65
2023/10/09 00:43:05;;;;;;;9.30;5.18;;;;;;;19.68;56.50;95513.91;5049308;28;20593;-65
2023/10/09 00:45:39;;;;;;;5.05;2.92;;;;;;;19.59;56.59;95511.88;5045914;28;20227;-64
2023/10/09 00:48:09;;;;;;;2.55;2.35;;;;;;;19.52;56.82;95518.38;5045096;28;20260;-65
2023/10/09 00:50:38;;;;;;;5.10;2.00;;;;;;;19.41;57.17;95510.41;5043821;28;20222;-65
2023/10/09 00:53:12;;;;;;;4.72;1.95;;;;;;;19.39;56.74;95509.69;5043945;28;20203;-65
2023/10/09 00:55:44;;;;;;;3.70;2.72;;;;;;;19.29;56.83;95517.16;5045096;28;20214;-65
2023/10/09 00:58:13;;;;;;;7.47;2.33;;;;;;;19.27;57.16;95518.16;5045521;28;20253;-65
2023/10/09 01:00:52;;;;;;;5.53;2.10;;;;;;;19.24;56.90;95519.19;5046999;28;20721;-65
2023/10/09 01:03:20;;;;;;;7.85;1.95;;;;;;;19.18;56.66;95513.56;5046196;28;20418;-67
2023/10/09 01:05:52;;;;;;;5.55;2.30;;;;;;;19.04;57.09;95522.13;5047334;28;20215;-65
2023/10/09 01:08:26;;;;;;;4.20;2.47;;;;;;;19.00;56.70;95523.22;5045529;28;20241;-64
2023/10/09 01:10:56;;;;;;;3.53;2.00;;;;;;;18.83;57.01;95528.50;5046310;28;20227;-64
2023/10/09 01:13:38;;;;;;;4.95;1.55;;;;;;;18.65;57.14;95541.56;5045393;28;20207;-67
2023/10/09 01:16:12;;;;;;;3.58;1.40;;;;;;;18.31;58.04;95555.47;5044970;28;20685;-69
2023/10/09 01:18:43;;;;;;;3.40;1.60;;;;;;;18.12;58.76;95554.00;5044724;28;20252;-67
2023/10/09 01:21:12;;;;;;;3.38;1.60;;;;;;;17.94;59.16;95553.28;5049943;28;20234;-66
2023/10/09 01:23:58;;;;;;;4.57;2.00;;;;;;;17.80;59.64;95541.19;5049269;28;20684;-64
2023/10/09 01:26:25;;;;;;;2.17;1.52;;;;;;;17.63;60.04;95549.75;5050188;28;20316;-67
2023/10/09 01:28:56;;;;;;;6.40;2.17;;;;;;;17.47;60.41;95545.53;5049652;28;20207;-67
2023/10/09 01:31:22;;;;;;;5.82;2.17;;;;;;;17.40;60.72;95560.41;5049603;28;20289;-66
2023/10/09 01:33:49;;;;;;;2.55;1.58;;;;;;;17.35;61.02;95570.94;5052862;28;20207;-66
2023/10/09 01:36:16;;;;;;;4.00;1.90;;;;;;;17.28;61.30;95579.06;5051150;28;20699;-68
2023/10/09 01:38:47;;;;;;;2.15;1.92;;;;;;;17.34;61.08;95591.56;5056751;28;20481;-68
2023/10/09 01:41:16;;;;;;;3.30;2.15;;;;;;;17.38;60.85;95580.22;5049228;28;20203;-68
2023/10/09 01:43:44;;;;;;;4.43;1.73;;;;;;;17.38;60.85;95580.22;5048796;28;20649;-68
2023/10/09 01:46:12;;;;;;;2.45;1.80;;;;;;;17.23;60.74;95583.59;5048805;28;20203;-68
2023/10/09 01:48:44;;;;;;;3.63;1.80;;;;;;;17.12;60.79;95596.13;5051943;28;20256;-67
2023/10/09 01:51:17;;;;;;;3.72;1.90;;;;;;;16.99;60.81;95593.38;5050841;28;20782;-66
2023/10/09 01:53:47;;;;;;;4.82;2.00;;;;;;;17.00;60.60;95606.13;5048826;28;20257;-66
2023/10/09 01:56:16;;;;;;;4.90;1.92;;;;;;;16.83;60.75;95582.19;5049590;28;20294;-67
2023/10/09 01:58:46;;;;;;;1.60;1.40;;;;;;;16.92;60.57;95600.53;5048826;28;20199;-69
2023/10/09 02:01:13;;;;;;;10.68;1.75;;;;;;;16.83;60.60;95600.16;5048291;28;20203;-65
2023/10/09 02:03:42;;;;;;;4.03;1.67;;;;;;;16.72;60.98;95610.97;5048639;28;20214;-66
2023/10/09 02:06:24;;;;;;;1.55;1.42;;;;;;;16.65;61.45;95637.84;5049344;28;20738;-66
2023/10/09 02:08:56;;;;;;;2.28;2.08;;;;;;;16.57;61.53;95647.63;5047757;28;20206;-67
2023/10/09 02:11:36;;;;;;;4.72;2.10;;;;;;;16.66;61.51;95642.06;5050827;28;20254;-66
2023/10/09 02:14:15;;;;;;;7.85;1.80;;;;;;;16.61;61.61;95631.16;5050608;28;20293;-68
2023/10/09 02:16:43;;;;;;;3.30;2.38;;;;;;;16.47;61.95;95636.94;5052224;28;20199;-67
2023/10/09 02:19:28;;;;;;;6.20;1.65;;;;;;;16.34;62.35;95631.56;5062531;28;20280;-67
2023/10/09 02:21:56;;;;;;;3.28;1.80;;;;;;;16.16;62.80;95632.41;5050076;28;20211;-68
2023/10/09 02:24:42;;;;;;;3.08;1.73;;;;;;;16.06;63.49;95635.50;5049287;28;20214;-68
2023/10/09 02:27:13;;;;;;;3.38;1.63;;;;;;;15.99;63.67;95638.34;5050187;28;20207;-67
2023/10/09 02:29:41;;;;;;;3.28;1.80;;;;;;;16.02;63.61;95628.84;5048789;28;20207;-67
2023/10/09 02:32:25;;;;;;;2.08;1.63;;;;;;;15.86;63.86;95637.22;5050458;28;20700;-68
2023/10/09 02:34:53;;;;;;;2.72;2.35;;;;;;;15.64;64.70;95634.78;5048503;28;20283;-68
2023/10/09 02:37:23;;;;;;;4.53;1.83;;;;;;;15.70;64.93;95630.28;5046998;28;20205;-66
2023/10/09 02:39:52;;;;;;;5.10;1.80;;;;;;;15.75;64.36;95646.28;5047565;28;20256;-67
2023/10/09 02:42:27;;;;;;;4.10;1.92;;;;;;;15.54;65.27;95643.75;5048637;28;20203;-68
2023/10/09 02:44:55;;;;;;;2.85;1.52;;;;;;;15.46;65.57;95661.16;5046730;28;20608;-66
2023/10/09 02:47:24;;;;;;;2.53;1.55;;;;;;;15.44;65.64;95664.69;5047299;28;20226;-67
2023/10/09 02:49:51;;;;;;;5.30;1.65;;;;;;;15.44;65.88;95674.94;5048535;28;20206;-67
2023/10/09 02:52:24;;;;;;;2.42;1.52;;;;;;;15.41;65.52;95665.66;5045951;28;20296;-67
2023/10/09 02:54:59;;;;;;;2.55;1.50;;;;;;;15.47;65.21;95672.25;5045604;28;20692;-65
2023/10/09 02:57:35;;;;;;;3.00;1.30;;;;;;;15.38;65.28;95676.03;5046177;28;20210;-67
2023/10/09 03:00:03;;;;;;;1.95;1.30;;;;;;;15.28;65.74;95674.78;5045597;28;20906;-66
2023/10/09 03:02:31;;;;;;;3.72;1.50;;;;;;;15.30;65.72;95680.66;5048815;28;20294;-68
2023/10/09 03:04:59;;;;;;;2.80;1.50;;;;;;;15.25;65.79;95675.72;5044712;28;20238;-68
2023/10/09 03:07:26;;;;;;;2.33;1.35;;;;;;;15.31;65.51;95677.19;5045371;28;20219;-66
2023/10/09 03:09:54;;;;;;;3.15;1.35;;;;;;;15.31;65.12;95677.19;5046834;28;20199;-67
2023/10/09 03:12:26;;;;;;;3.13;1.45;;;;;;;15.23;65.67;95686.94;5047828;28;20203;-67
2023/10/09 03:14:59;;;;;;;3.50;1.95;;;;;;;15.09;66.64;95684.13;5047747;28;20673;-64
2023/10/09 03:17:25;;;;;;;6.43;2.75;;;;;;;15.21;66.33;95687.00;5049279;28;20231;-65
2023/10/09 03:19:52;;;;;;;3.65;2.00;;;;;;;15.51;64.88;95700.22;5048267;28;20339;-64
2023/10/09 03:22:19;;;;;;;3.83;2.30;;;;;;;15.46;65.04;95706.44;5048523;28;20302;-63
2023/10/09 03:24:46;;;;;;;4.60;2.17;;;;;;;15.55;64.62;95698.38;5046997;28;20644;-63
2023/10/09 03:27:15;;;;;;;4.88;1.20;;;;;;;15.54;63.98;95715.47;5047674;28;20230;-63
2023/10/09 03:29:48;;;;;;;2.25;1.42;;;;;;;15.47;65.07;95714.06;5049117;28;20302;-63
2023/10/09 03:32:15;;;;;;;3.17;1.52;;;;;;;15.53;64.08;95705.28;5046069;28;20616;-63
2023/10/09 03:34:43;;;;;;;1.55;1.45;;;;;;;15.37;64.47;95717.06;5052176;28;20206;-62
2023/10/09 03:37:21;;;;;;;6.78;1.30;;;;;;;15.32;64.57;95719.84;5045958;28;20214;-64
2023/10/09 03:39:51;;;;;;;5.35;1.15;;;;;;;15.10;65.18;95709.63;5048194;28;20199;-64
2023/10/09 03:42:20;;;;;;;1.67;1.52;;;;;;;14.98;65.30;95712.69;5047881;28;20270;-65
2023/10/09 03:44:52;;;;;;;4.63;1.50;;;;;;;14.97;65.06;95724.66;5050919;28;20249;-65
2023/10/09 03:47:22;;;;;;;1.50;1.40;;;;;;;15.09;64.41;95718.22;5046133;28;20198;-63
2023/10/09 03:49:51;;;;;;;1.70;1.15;;;;;;;15.05;64.34;95720.97;5048563;28;20773;-66
2023/10/09 03:52:18;;;;;;;1.75;1.20;;;;;;;15.04;64.53;95724.44;5048416;28;20755;-64
2023/10/09 03:54:46;;;;;;;4.68;1.38;;;;;;;14.94;64.77;95729.06;5049976;28;20213;-63
2023/10/09 03:57:18;;;;;;;3.08;1.27;;;;;;;14.72;65.30;95738.50;5050742;28;20282;-63
2023/10/09 03:59:46;;;;;;;4.78;3.90;;;;;;;14.60;65.82;95745.72;5049975;28;20203;-64
2023/10/09 04:02:13;;;;;;;5.88;3.47;;;;;;;14.67;65.54;95741.22;5049006;28;20191;-63
2023/10/09 04:04:45;;;;;;;4.00;1.85;;;;;;;14.66;65.50;95744.66;5047504;28;20326;-63
2023/10/09 04:07:12;;;;;;;5.22;1.30;;;;;;;14.68;65.56;95737.78;5048188;28;20241;-63
2023/10/09 04:09:44;;;;;;;4.03;1.35;;;;;;;14.63;65.58;95735.38;5047388;28;20646;-62
2023/10/09 04:12:20;;;;;;;5.88;1.30;;;;;;;14.47;65.85;95723.25;5046600;28;20331;-63
2023/10/09 04:14:54;;;;;;;2.70;1.50;;;;;;;14.52;65.41;95726.47;5049299;28;20291;-63
2023/10/09 04:17:33;;;;;;;2.45;1.45;;;;;;;14.49;64.74;95731.69;5044974;28;20203;-64
2023/10/09 04:20:47;;;;;;;2.55;1.10;;;;;;;14.42;65.29;95725.16;5045752;28;20268;-64
2023/10/09 04:23:05;;;;;;;7.18;5.70;;;;;;;14.42;65.14;95735.38;5046905;28;20718;-64
2023/10/09 04:25:41;;;;;;;11.90;7.03;;;;;;;14.33;64.96;95741.66;5046216;28;20288;-64
2023/10/09 04:28:18;;;;;;;1.88;1.77;;;;;;;14.37;64.18;95748.28;5045947;28;20297;-63
2023/10/09 04:30:53;;;;;;;5.68;1.40;;;;;;;14.36;64.54;95745.78;5046203;28;20234;-63
2023/10/09 04:33:34;;;;;;;1.30;1.20;;;;;;;14.36;64.03;95748.66;5045725;28;20247;-64
2023/10/09 04:36:22;;;;;;;1.50;1.30;;;;;;;14.35;63.77;95745.00;5046819;28;20202;-64
2023/10/09 04:41:52;;;;;;;2.38;1.15;;;;;;;14.20;64.07;95746.38;5049221;28;20203;-64
2023/10/09 04:44:18;;;;;;;3.33;1.10;;;;;;;14.40;62.67;95747.34;5048005;28;20207;-64
2023/10/09 04:47:18;;;;;;;1.58;1.40;;;;;;;14.32;63.10;95752.78;5047137;28;20298;-64
2023/10/09 04:49:49;;;;;;;4.20;1.50;;;;;;;14.42;62.63;95745.59;5045276;28;20195;-65
2023/10/09 04:52:30;;;;;;;1.10;1.10;;;;;;;14.56;61.33;95754.44;5044316;28;20291;-64
2023/10/09 04:55:16;;;;;;;12.57;7.13;;;;;;;14.49;61.76;95753.00;5044856;28;20195;-63
2023/10/09 04:58:00;;;;;;;11.32;7.80;;;;;;;14.46;61.87;95752.28;5046604;28;20210;-63
2023/10/09 05:00:46;;;;;;;5.60;5.10;;;;;;;14.49;61.72;95764.94;5050744;28;20292;-64
2023/10/09 05:03:25;;;;;;;15.68;7.85;;;;;;;14.42;62.19;95761.78;5048302;28;20292;-64
2023/10/09 05:05:59;;;;;;;3.22;2.03;;;;;;;14.54;61.55;95761.34;5049754;28;20971;-65
2023/10/09 05:08:28;;;;;;;2.50;1.65;;;;;;;14.47;61.87;95769.28;5047655;28;20209;-64
2023/10/09 05:11:05;;;;;;;2.00;1.83;;;;;;;14.53;61.05;95767.34;5053931;28;20301;-63
2023/10/09 05:13:42;;;;;;;1.30;1.20;;;;;;;14.63;60.54;95778.88;5053220;28;20226;-64
2023/10/09 05:16:15;;;;;;;1.50;1.40;;;;;;;14.62;60.99;95789.16;5049421;28;20264;-63
2023/10/09 05:18:45;;;;;;;3.42;1.58;;;;;;;14.45;60.55;95756.56;5051944;28;20207;-64
2023/10/09 05:24:16;;;;;;;1.63;1.08;;;;;;;14.80;59.84;95779.97;5055890;28;20202;-64
2023/10/09 05:26:50;;;;;;;4.88;1.38;;;;;;;14.94;58.40;95791.31;5052674;28;20222;-63
2023/10/09 05:29:24;;;;;;;3.95;1.42;;;;;;;15.06;58.44;95784.06;5049969;28;20202;-63
2023/10/09 05:31:56;;;;;;;2.45;1.40;;;;;;;15.43;57.14;95791.94;5055456;28;20576;-64
2023/10/09 05:34:33;;;;;;;1.30;1.20;;;;;;;15.84;54.96;95791.94;5059650;28;20777;-64
2023/10/09 05:37:16;;;;;;;4.55;1.50;;;;;;;16.16;53.67;95795.69;5064000;28;20208;-64
2023/10/09 05:39:58;;;;;;;1.70;1.30;;;;;;;16.13;53.70;95812.06;5051673;28;20203;-64
2023/10/09 05:42:28;;;;;;;2.75;1.55;;;;;;;16.11;53.53;95807.88;5051622;28;20252;-64
2023/10/09 05:47:47;;;;;;;2.30;2.15;;;;;;;15.86;54.35;95818.34;5051380;28;20214;-64
2023/10/09 05:50:33;;;;;;;2.75;2.15;;;;;;;15.72;54.04;95820.69;5048846;28;20225;-64
2023/10/09 05:53:34;;;;;;;5.05;3.85;;;;;;;15.69;53.76;95833.63;5048958;28;20306;-64
2023/10/09 06:04:15;;;;;;;1.70;1.60;;;;;;;15.68;53.41;95852.44;5050045;28;20256;-64
2023/10/09 06:06:46;;;;;;;2.50;1.35;;;;;;;15.78;52.09;95846.91;5050487;28;20218;-62
2023/10/09 06:09:49;;;;;;;1.25;1.15;;;;;;;15.81;52.17;95835.69;5052190;28;20190;-63
2023/10/09 06:15:18;;;;;;;2.45;1.20;;;;;;;16.13;50.65;95852.25;5057896;28;20217;-64
2023/10/09 06:17:44;;;;;;;1.90;1.40;;;;;;;16.80;49.01;95859.59;5064394;28;20202;-65
2023/10/09 06:23:15;;;;;;;3.85;1.40;;;;;;;17.87;45.32;95863.06;5059025;28;20202;-64
2023/10/09 06:25:50;;;;;;;4.13;1.55;;;;;;;19.02;42.87;95853.69;5053304;28;20234;-63
2023/10/09 06:28:32;;;;;;;4.18;1.38;;;;;;;20.40;39.73;95851.88;5053041;28;20302;-63
2023/10/09 06:31:27;;;;;;;3.50;1.42;;;;;;;20.57;38.95;95856.84;5051545;28;20254;-65
2023/10/09 06:34:07;;;;;;;1.95;1.50;;;;;;;19.97;39.71;95865.53;5055568;28;20202;-64
2023/10/09 06:36:33;;;;;;;2.80;1.60;;;;;;;19.24;41.13;95879.13;5055095;28;20281;-63
2023/10/09 06:41:45;;;;;;;2.67;0.90;;;;;;;18.09;42.79;95867.97;5047031;28;20278;-64
2023/10/09 06:44:51;;;;;;;3.63;1.25;;;;;;;17.82;43.72;95862.47;5047269;28;20207;-64
2023/10/09 06:47:07;;;;;;;2.15;1.40;;;;;;;17.71;43.06;95849.31;5045993;28;20602;-63
2023/10/09 06:49:36;;;;;;;2.80;1.48;;;;;;;17.91;43.30;95860.28;5046282;28;20630;-64
2023/10/09 06:52:15;;;;;;;3.53;1.20;;;;;;;18.47;41.99;95860.91;5046896;28;20227;-64
2023/10/09 06:54:49;;;;;;;2.05;1.58;;;;;;;19.15;40.31;95864.97;5047410;28;20210;-64
2023/10/09 06:57:43;;;;;;;1.88;1.30;;;;;;;19.12;40.31;95870.28;5048976;28;21282;-63
2023/10/09 07:02:53;;;;;;;1.25;1.20;;;;;;;18.54;40.64;95857.09;5051436;28;20226;-64
2023/10/09 07:05:19;;;;;;;1.95;1.17;;;;;;;18.32;40.79;95853.03;5047608;28;20203;-64
2023/10/09 07:07:54;;;;;;;3.00;1.08;;;;;;;18.20;40.65;95853.69;5049343;28;20203;-64
2023/10/09 07:10:39;;;;;;;2.75;1.88;;;;;;;18.09;40.67;95863.66;5047455;28;20298;-63
2023/10/09 07:13:05;;;;;;;2.35;1.52;;;;;;;17.96;41.04;95871.19;5047185;28;20277;-66
2023/10/09 07:18:49;;;;;;;1.63;1.50;;;;;;;17.67;41.96;95874.34;4973242;28;20228;-64
2023/10/09 07:21:18;;;;;;;4.97;3.03;;;;;;;17.68;42.19;95876.84;5041757;28;20658;-63
2023/10/09 07:23:49;;;;;;;8.90;3.80;;;;;;;17.77;41.74;95865.28;5048096;28;20281;-64
2023/10/09 07:26:23;;;;;;;3.50;1.70;;;;;;;17.84;40.76;95865.78;5048147;28;20328;-63
2023/10/09 07:28:49;;;;;;;2.63;1.58;;;;;;;17.93;40.45;95865.34;5048212;28;20211;-63
2023/10/09 07:31:27;;;;;;;2.30;1.92;;;;;;;18.14;39.24;95872.00;5046557;28;20234;-63
2023/10/09 07:34:06;;;;;;;2.05;1.58;;;;;;;18.39;39.29;95874.16;5047699;28;20289;-64
2023/10/09 07:36:37;;;;;;;2.38;2.13;;;;;;;18.75;38.55;95865.47;5048852;28;20199;-62
2023/10/09 07:39:13;;;;;;;3.28;1.70;;;;;;;19.00;37.97;95866.66;5051311;28;20585;-64
2023/10/09 07:41:55;;;;;;;2.58;2.00;;;;;;;19.36;37.36;95868.13;5051260;28;20206;-63
2023/10/09 07:44:36;;;;;;;6.22;2.92;;;;;;;20.44;35.37;95868.84;5049422;28;20619;-64
2023/10/09 07:47:22;;;;;;;4.25;1.90;;;;;;;20.44;35.37;95868.84;5047405;28;20290;-63
2023/10/09 07:49:51;;;;;;;3.78;3.38;;;;;;;23.07;30.97;95856.91;5046957;28;20206;-63
2023/10/09 07:52:18;;;;;;;1.83;1.73;;;;;;;25.21;27.78;95853.03;5047413;28;20345;-64
2023/10/09 07:54:52;;;;;;;1.50;1.40;;;;;;;26.76;24.89;95852.41;5050755;28;20222;-65
2023/10/09 07:57:25;;;;;;;5.57;1.30;;;;;;;27.64;23.66;95855.19;5048994;28;20594;-65
2023/10/09 08:00:00;;;;;;;2.00;0.90;;;;;;;28.58;22.02;95855.38;5048281;28;20579;-64
2023/10/09 08:02:32;;;;;;;3.08;1.52;;;;;;;29.55;21.36;95840.88;5047997;28;20213;-64
2023/10/09 08:05:06;;;;;;;4.30;1.23;;;;;;;29.98;20.90;95847.16;5048186;28;20757;-64
2023/10/09 08:07:36;;;;;;;3.03;1.02;;;;;;;30.67;20.18;95855.09;5048366;28;20210;-64
2023/10/09 08:12:59;;;;;;;3.30;1.48;;;;;;;33.08;17.71;95861.84;5047638;28;20280;-63
2023/10/09 08:15:34;;;;;;;3.35;1.40;;;;;;;33.28;17.63;95853.53;5047042;28;20211;-64
2023/10/09 08:18:09;;;;;;;1.55;1.25;;;;;;;33.23;17.55;95835.59;5047785;28;20207;-64
2023/10/09 08:21:08;;;;;;;2.58;2.03;;;;;;;33.23;17.67;95845.31;5048128;28;20228;-63
2023/10/09 08:23:28;;;;;;;1.50;1.40;;;;;;;33.50;17.41;95839.59;5046053;28;20202;-65
2023/10/09 08:26:10;;;;;;;1.73;1.63;;;;;;;33.56;16.68;95845.97;5046826;28;20238;-65
2023/10/09 08:28:42;;;;;;;5.53;1.60;;;;;;;32.86;17.37;95846.78;5047126;28;20205;-64
2023/10/09 08:31:19;;;;;;;1.42;1.33;;;;;;;32.44;17.96;95836.47;5047453;28;20214;-65
2023/10/09 08:33:56;;;;;;;2.50;1.70;;;;;;;31.81;18.29;95833.69;5051273;28;20231;-65
2023/10/09 08:36:27;;;;;;;2.20;1.13;;;;;;;31.45;18.43;95826.88;5055727;28;20203;-64
2023/10/09 08:38:58;;;;;;;4.22;1.20;;;;;;;30.89;19.18;95821.41;5054423;28;20205;-63
2023/10/09 08:41:29;;;;;;;3.08;1.00;;;;;;;29.93;19.80;95815.38;5051729;28;20206;-64
2023/10/09 08:43:59;;;;;;;1.73;0.88;;;;;;;29.20;20.64;95814.66;5050804;28;20206;-63
2023/10/09 08:46:27;;;;;;;1.38;1.27;;;;;;;28.54;21.21;95818.22;5050564;28;20206;-63
2023/10/09 08:48:55;;;;;;;2.88;1.23;;;;;;;27.87;21.79;95815.72;5051130;28;20296;-64
2023/10/09 08:51:25;;;;;;;7.82;1.30;;;;;;;27.45;22.08;95802.91;5052658;28;20280;-65
2023/10/09 08:53:52;;;;;;;1.40;1.00;;;;;;;27.37;21.98;95815.81;5050232;28;20202;-65
2023/10/09 08:56:22;;;;;;;2.35;1.10;;;;;;;27.09;22.35;95805.19;5050808;28;20209;-65
2023/10/09 08:58:52;;;;;;;1.35;1.25;;;;;;;26.63;22.79;95800.50;5050093;28;20214;-66
2023/10/09 09:01:21;;;;;;;15.45;9.38;;;;;;;26.21;23.43;95810.16;5050474;28;20230;-63
2023/10/09 09:03:50;;;;;;;3.00;2.33;;;;;;;25.64;23.89;95806.19;5048875;28;20214;-63
2023/10/09 09:06:19;;;;;;;17.77;14.68;;;;;;;25.27;23.80;95808.28;5051084;28;21111;-66
2023/10/09 09:08:46;;;;;;;4.65;3.00;;;;;;;24.87;24.15;95802.81;5050276;28;20195;-65
2023/10/09 09:11:17;;;;;;;8.73;5.85;;;;;;;24.76;26.01;95819.22;5053952;28;20261;-64
2023/10/09 09:13:49;;;;;;;5.20;3.90;;;;;;;24.66;25.77;95820.91;5055114;28;20207;-65
2023/10/09 09:16:17;;;;;;;5.38;2.50;;;;;;;24.52;26.10;95820.28;5055028;28;20736;-66
2023/10/09 09:19:04;;;;;;;7.38;3.25;;;;;;;24.44;28.53;95822.66;5053353;28;20601;-65
2023/10/09 09:21:38;;;;;;;2.30;2.10;;;;;;;24.36;26.36;95825.84;5050631;28;20202;-65
2023/10/09 09:24:15;;;;;;;4.78;1.98;;;;;;;24.39;26.07;95810.84;5051610;28;20229;-66
2023/10/09 09:26:58;;;;;;;2.00;1.63;;;;;;;24.24;25.71;95809.44;5049573;28;20715;-65
2023/10/09 09:29:38;;;;;;;1.67;1.58;;;;;;;24.11;26.57;95816.44;5048786;28;20610;-65
2023/10/09 09:32:15;;;;;;;1.02;1.02;;;;;;;23.97;24.91;95809.72;5049898;28;20593;-65
2023/10/09 09:34:48;;;;;;;1.52;1.38;;;;;;;23.92;24.86;95805.78;5050865;28;20755;-64
2023/10/09 09:37:20;;;;;;;1.42;1.30;;;;;;;23.99;25.80;95792.25;5050431;28;20589;-64
2023/10/09 09:39:51;;;;;;;3.30;1.60;;;;;;;24.01;25.19;95779.13;5049060;28;20284;-66
2023/10/09 09:42:24;;;;;;;1.50;1.40;;;;;;;23.91;25.61;95799.78;5049271;28;20239;-66
2023/10/09 09:44:52;;;;;;;2.92;1.30;;;;;;;23.78;24.87;95790.41;5049857;28;20268;-64
2023/10/09 09:47:26;;;;;;;3.45;1.23;;;;;;;23.71;25.52;95790.88;5048124;28;20261;-65
2023/10/09 09:49:59;;;;;;;1.30;1.20;;;;;;;23.71;25.98;95792.66;5050113;28;20700;-65
2023/10/09 09:52:37;;;;;;;3.90;1.20;;;;;;;23.66;25.12;95799.94;5048563;28;20226;-66
2023/10/09 09:55:05;;;;;;;3.95;1.40;;;;;;;23.50;25.62;95800.22;5049146;28;20272;-65
2023/10/09 09:57:39;;;;;;;1.42;1.23;;;;;;;23.44;25.45;95782.50;5050894;28;20261;-64
2023/10/09 10:00:26;;;;;;;1.00;1.00;;;;;;;23.30;24.79;95778.28;5049199;28;20580;-65
2023/10/09 10:02:57;;;;;;;1.40;1.13;;;;;;;23.17;24.85;95772.34;5050897;28;20198;-65
2023/10/09 10:05:29;;;;;;;2.60;1.15;;;;;;;23.17;25.26;95774.94;5048972;28;20199;-65
2023/10/09 10:07:58;;;;;;;4.07;1.50;;;;;;;23.26;24.44;95755.31;5051189;28;21426;-66
2023/10/09 10:10:37;;;;;;;2.85;1.20;;;;;;;23.20;24.50;95758.34;5048603;28;20206;-65
2023/10/09 10:13:04;;;;;;;2.97;1.33;;;;;;;23.17;24.95;95754.19;5049176;28;20234;-64
2023/10/09 10:16:19;;;;;;;1.60;1.48;;;;;;;23.06;24.28;95747.19;5048747;28;20722;-66
2023/10/09 10:18:59;;;;;;;2.50;1.75;;;;;;;23.10;23.75;95734.81;5049207;28;20203;-65
2023/10/09 10:21:38;;;;;;;1.75;1.60;;;;;;;23.06;24.20;95730.78;5048373;28;20217;-65
2023/10/09 10:24:06;;;;;;;2.70;1.35;;;;;;;22.94;24.37;95722.16;5050124;28;20294;-65
2023/10/09 10:26:34;;;;;;;2.88;1.20;;;;;;;22.88;24.55;95703.63;5049564;28;20638;-66
2023/10/09 10:29:26;;;;;;;1.92;1.60;;;;;;;22.98;23.56;95699.44;5048994;28;20286;-65
2023/10/09 10:31:54;;;;;;;2.88;2.00;;;;;;;22.93;24.08;95694.56;5049496;28;20321;-66
2023/10/09 10:34:23;;;;;;;1.90;1.58;;;;;;;22.92;24.40;95699.88;5048819;28;20704;-64
2023/10/09 10:36:58;;;;;;;1.88;1.77;;;;;;;22.85;24.21;95694.28;5050455;28;20195;-65
2023/10/09 10:39:42;;;;;;;2.22;1.63;;;;;;;22.81;24.88;95692.84;5048572;28;20559;-64
2023/10/09 10:42:14;;;;;;;7.45;2.13;;;;;;;22.94;24.62;95679.84;5051727;28;20232;-66
2023/10/09 10:44:44;;;;;;;1.80;1.70;;;;;;;23.15;24.61;95680.88;5060627;28;20202;-64
2023/10/09 10:47:26;;;;;;;4.82;2.92;;;;;;;23.12;24.93;95672.50;5063055;28;20446;-66
2023/10/09 10:49:59;;;;;;;3.13;2.35;;;;;;;23.05;24.93;95670.34;5055948;28;20675;-65
2023/10/09 10:52:35;;;;;;;3.30;1.95;;;;;;;23.12;24.97;95667.31;5049355;28;20775;-65
2023/10/09 10:55:31;;;;;;;2.33;1.58;;;;;;;22.95;25.45;95666.78;5048633;28;20832;-65
2023/10/09 10:58:10;;;;;;;4.00;3.70;;;;;;;23.03;24.92;95659.25;5057185;28;20207;-65
2023/10/09 11:03:29;;;;;;;2.35;2.25;;;;;;;23.03;25.37;95664.44;5056840;28;20205;-65
2023/10/09 11:05:55;;;;;;;2.50;2.40;;;;;;;22.90;25.43;95666.28;5061624;28;20284;-66
2023/10/09 11:08:31;;;;;;;3.75;3.42;;;;;;;22.83;25.52;95662.47;5064176;28;20203;-66
2023/10/09 11:11:15;;;;;;;3.42;2.65;;;;;;;22.65;25.68;95648.22;5054932;28;20230;-66
2023/10/09 11:13:53;;;;;;;5.45;3.20;;;;;;;22.76;26.08;95637.09;5053441;28;20226;-67
2023/10/09 11:16:28;;;;;;;5.40;3.60;;;;;;;22.79;25.38;95624.75;5051849;28;20208;-66
2023/10/09 11:18:57;;;;;;;4.25;3.88;;;;;;;22.65;25.77;95625.75;5049503;28;20256;-67
2023/10/09 11:21:31;;;;;;;3.92;3.40;;;;;;;22.67;25.67;95618.69;5047387;28;20195;-67
2023/10/09 11:24:23;;;;;;;2.65;2.45;;;;;;;22.70;26.00;95609.88;5047187;28;20199;-66
2023/10/09 11:26:55;;;;;;;3.90;2.05;;;;;;;22.62;25.81;95609.59;5047349;28;20227;-66
2023/10/09 11:29:52;;;;;;;2.97;2.40;;;;;;;22.62;26.06;95605.22;5047310;28;20694;-67
2023/10/09 11:32:18;;;;;;;3.65;1.67;;;;;;;22.62;25.68;95614.78;5047368;28;20711;-68
2023/10/09 11:34:51;;;;;;;7.43;2.50;;;;;;;22.56;25.63;95615.19;5049626;28;20210;-65
2023/10/09 11:37:31;;;;;;;5.40;3.10;;;;;;;22.61;25.58;95608.75;5048001;28;20199;-64
2023/10/09 11:40:01;;;;;;;3.72;2.72;;;;;;;22.66;25.63;95598.91;5050190;28;20297;-66
2023/10/09 11:42:35;;;;;;;2.85;2.40;;;;;;;22.57;25.82;95604.72;5046481;28;20222;-67
2023/10/09 11:45:19;;;;;;;2.75;2.55;;;;;;;22.60;25.77;95595.91;5047950;28;20640;-66
2023/10/09 11:47:54;;;;;;;2.80;2.60;;;;;;;22.57;25.78;95596.13;5046778;28;20203;-67
2023/10/09 11:50:30;;;;;;;3.58;2.53;;;;;;;22.26;25.72;95569.88;5047695;28;20262;-64
2023/10/09 11:53:17;;;;;;;4.38;3.28;;;;;;;22.32;26.20;95587.53;5047371;28;20705;-65
2023/10/09 11:55:48;;;;;;;2.97;2.78;;;;;;;22.43;26.08;95568.66;5047161;28;20281;-66
2023/10/09 11:58:22;;;;;;;2.42;2.30;;;;;;;22.37;25.88;95569.09;5050436;28;20214;-64
2023/10/09 12:00:51;;;;;;;2.42;2.17;;;;;;;22.40;26.02;95564.53;5053638;28;20206;-64
2023/10/09 12:03:21;;;;;;;2.65;1.60;;;;;;;22.34;25.71;95554.59;5053086;28;20244;-64
2023/10/09 12:05:48;;;;;;;1.90;1.80;;;;;;;22.36;25.92;95550.13;5055527;28;20195;-65
2023/10/09 12:08:16;;;;;;;2.97;1.83;;;;;;;22.50;25.59;95548.31;5046117;28;20677;-64
2023/10/09 12:10:48;;;;;;;2.33;2.13;;;;;;;22.43;25.61;95523.81;5051026;28;20202;-64
2023/10/09 12:13:15;;;;;;;3.33;2.28;;;;;;;22.62;25.48;95537.03;5048047;28;20707;-64
2023/10/09 12:15:46;;;;;;;2.00;1.80;;;;;;;22.62;24.86;95537.03;5046690;28;20793;-65
2023/10/09 12:18:15;;;;;;;1.70;1.60;;;;;;;22.68;25.14;95527.06;5046250;28;20207;-63
2023/10/09 12:20:47;;;;;;;1.55;1.45;;;;;;;22.62;25.43;95526.69;5052013;28;20671;-64
2023/10/09 12:23:14;;;;;;;3.58;1.40;;;;;;;22.63;25.24;95529.16;5046480;28;20257;-66
2023/10/09 12:25:44;;;;;;;2.63;1.13;;;;;;;22.65;24.79;95521.28;5046361;28;20226;-64
2023/10/09 12:28:13;;;;;;;2.00;1.90;;;;;;;22.64;24.93;95515.28;5046191;28;20199;-64
2023/10/09 12:30:40;;;;;;;1.48;1.38;;;;;;;22.65;25.22;95522.09;5047443;28;20724;-65
2023/10/09 12:33:08;;;;;;;3.03;1.50;;;;;;;22.68;24.82;95505.50;5060286;28;20652;-65
2023/10/09 12:35:37;;;;;;;1.63;1.30;;;;;;;22.84;24.69;95503.44;5049781;28;20226;-66
2023/10/09 12:38:08;;;;;;;2.83;1.33;;;;;;;22.88;24.52;95507.47;5047631;28;21879;-64
2023/10/09 12:40:35;;;;;;;2.40;1.25;;;;;;;22.85;24.58;95486.13;5048768;28;20207;-66
2023/10/09 12:43:02;;;;;;;1.15;1.05;;;;;;;22.85;24.70;95494.72;5045446;28;20195;-64
2023/10/09 12:45:35;;;;;;;1.30;1.20;;;;;;;22.87;25.06;95500.63;5046613;28;20222;-63